createdAt,value
2019-03-27T00:01:43.770Z,4.10
2019-03-27T00:04:12.264Z,4.37
2019-03-27T00:06:40.733Z,3.70
2019-03-27T00:09:09.206Z,4.05
2019-03-27T00:11:37.674Z,4.08
2019-03-27T00:14:06.227Z,3.32
2019-03-27T00:16:34.708Z,3.82
2019-03-27T00:19:03.221Z,3.24
2019-03-27T00:21:31.684Z,3.74
2019-03-27T00:24:00.162Z,4.26
2019-03-27T00:26:28.628Z,3.64
2019-03-27T00:28:57.117Z,3.30
2019-03-27T00:31:25.685Z,3.83
2019-03-27T00:33:54.151Z,3.41
2019-03-27T00:36:22.625Z,4.03
2019-03-27T00:38:51.100Z,4.10
2019-03-27T00:41:19.590Z,4.46
2019-03-27T00:43:48.054Z,3.60
2019-03-27T00:46:16.548Z,3.91
2019-03-27T00:48:45.017Z,4.05
2019-03-27T00:51:13.505Z,3.24
2019-03-27T00:53:41.970Z,2.91
2019-03-27T00:56:10.451Z,3.24
2019-03-27T00:58:38.950Z,3.02
2019-03-27T01:01:09.133Z,3.31
2019-03-27T01:03:37.754Z,3.48
2019-03-27T01:06:06.568Z,2.91
2019-03-27T01:08:35.132Z,2.90
2019-03-27T01:11:03.755Z,3.07
2019-03-27T01:13:32.246Z,2.85
2019-03-27T01:16:00.786Z,2.84
2019-03-27T01:18:29.352Z,2.81
2019-03-27T01:20:57.829Z,2.80
2019-03-27T01:23:26.311Z,3.16
2019-03-27T01:25:54.788Z,2.99
2019-03-27T01:28:23.362Z,2.94
2019-03-27T01:30:51.857Z,2.74
2019-03-27T01:33:20.336Z,2.66
2019-03-27T01:35:48.799Z,2.61
2019-03-27T01:38:17.296Z,2.87
2019-03-27T01:40:45.804Z,3.11
2019-03-27T01:43:14.267Z,2.71
2019-03-27T01:45:52.373Z,2.67
2019-03-27T01:48:13.027Z,2.90
2019-03-27T01:50:41.502Z,2.44
2019-03-27T01:53:09.991Z,2.64
2019-03-27T01:55:38.459Z,3.42
2019-03-27T01:58:06.939Z,3.21
2019-03-27T02:00:35.399Z,3.02
2019-03-27T02:03:03.987Z,2.39
2019-03-27T02:05:32.444Z,2.86
2019-03-27T02:08:00.914Z,2.91
2019-03-27T02:10:29.418Z,3.45
2019-03-27T02:12:57.952Z,3.05
2019-03-27T02:15:26.456Z,2.90
2019-03-27T02:17:54.927Z,3.10
2019-03-27T02:20:23.407Z,2.82
2019-03-27T02:22:51.986Z,2.80
2019-03-27T02:25:20.483Z,2.69
2019-03-27T02:27:48.973Z,2.70
2019-03-27T02:30:17.683Z,2.63
2019-03-27T02:32:46.150Z,2.57
2019-03-27T02:35:14.625Z,2.29
2019-03-27T02:37:43.116Z,2.67
2019-03-27T02:40:12.063Z,3.38
2019-03-27T02:42:40.565Z,3.45
2019-03-27T02:45:09.259Z,2.71
2019-03-27T02:47:37.865Z,2.88
2019-03-27T02:50:08.261Z,3.37
2019-03-27T02:52:36.819Z,3.45
2019-03-27T02:55:07.452Z,3.76
2019-03-27T02:57:36.385Z,2.80
2019-03-27T03:00:08.367Z,2.63
2019-03-27T03:02:36.834Z,2.47
2019-03-27T03:05:10.200Z,2.19
2019-03-27T03:07:38.668Z,1.84
2019-03-27T03:10:09.076Z,1.86
2019-03-27T03:12:37.554Z,1.65
2019-03-27T03:15:06.789Z,1.39
2019-03-27T03:17:35.321Z,1.35
2019-03-27T03:20:05.350Z,1.41
2019-03-27T03:22:33.815Z,1.72
2019-03-27T03:25:02.378Z,1.39
2019-03-27T03:27:30.866Z,1.82
2019-03-27T03:29:59.348Z,1.60
2019-03-27T03:32:27.820Z,1.45
2019-03-27T03:34:56.355Z,1.80
2019-03-27T03:37:24.848Z,1.98
2019-03-27T03:39:53.399Z,2.14
2019-03-27T03:42:21.955Z,2.24
2019-03-27T03:44:50.447Z,2.27
2019-03-27T03:47:18.954Z,2.60
2019-03-27T03:49:47.413Z,2.99
2019-03-27T03:52:16.339Z,3.42
2019-03-27T03:54:44.839Z,3.48
2019-03-27T03:57:13.573Z,3.65
2019-03-27T03:59:43.190Z,3.87
2019-03-27T04:02:13.497Z,3.94
2019-03-27T04:04:42.907Z,3.98
2019-03-27T04:07:11.426Z,4.06
2019-03-27T04:09:39.906Z,4.02
2019-03-27T04:12:08.386Z,4.03
2019-03-27T04:14:36.890Z,3.93
2019-03-27T04:17:17.156Z,3.97
2019-03-27T04:19:35.548Z,3.96
2019-03-27T04:22:04.048Z,3.94
2019-03-27T04:24:32.517Z,3.30
2019-03-27T04:27:01.024Z,3.45
2019-03-27T04:29:29.493Z,3.41
2019-03-27T04:31:57.959Z,3.49
2019-03-27T04:34:26.449Z,3.58
2019-03-27T04:36:54.919Z,3.60
2019-03-27T04:39:23.407Z,3.63
2019-03-27T04:41:51.874Z,3.69
2019-03-27T04:44:20.376Z,3.69
2019-03-27T04:46:48.848Z,3.63
2019-03-27T04:49:17.351Z,3.68
2019-03-27T04:51:45.832Z,3.63
2019-03-27T04:54:14.335Z,3.35
2019-03-27T04:56:42.815Z,3.09
2019-03-27T04:59:11.282Z,3.14
2019-03-27T05:01:39.784Z,3.12
2019-03-27T05:04:08.849Z,3.31
2019-03-27T05:06:37.417Z,3.26
2019-03-27T05:09:06.257Z,3.21
2019-03-27T05:11:34.760Z,3.45
2019-03-27T05:14:03.236Z,3.41
2019-03-27T05:16:31.717Z,3.46
2019-03-27T05:19:00.227Z,3.51
2019-03-27T05:21:28.721Z,3.52
2019-03-27T05:23:57.230Z,3.60
2019-03-27T05:26:25.718Z,3.69
2019-03-27T05:28:54.220Z,3.74
2019-03-27T05:31:22.730Z,3.67
2019-03-27T05:33:51.176Z,3.79
2019-03-27T05:36:19.651Z,3.82
2019-03-27T05:38:48.158Z,3.92
2019-03-27T05:41:16.640Z,3.95
2019-03-27T05:43:45.135Z,4.03
2019-03-27T05:46:13.621Z,4.15
2019-03-27T05:48:42.131Z,4.11
2019-03-27T05:51:10.630Z,4.12
2019-03-27T05:53:39.097Z,4.34
2019-03-27T05:56:07.578Z,4.33
2019-03-27T05:58:36.042Z,4.43
2019-03-27T06:01:04.551Z,4.42
2019-03-27T06:03:33.022Z,3.73
2019-03-27T06:06:01.507Z,4.28
2019-03-27T06:08:29.983Z,4.09
2019-03-27T06:10:58.483Z,4.56
2019-03-27T06:13:26.954Z,4.56
2019-03-27T06:15:55.488Z,4.53
2019-03-27T06:18:24.991Z,3.86
2019-03-27T06:20:53.465Z,4.25
2019-03-27T06:23:21.961Z,4.56
2019-03-27T06:25:50.420Z,4.77
2019-03-27T06:28:18.897Z,4.68
2019-03-27T06:30:47.379Z,4.75
2019-03-27T06:33:15.848Z,4.48
2019-03-27T06:35:44.345Z,4.68
2019-03-27T06:38:12.813Z,4.89
2019-03-27T06:40:41.331Z,5.02
2019-03-27T06:43:09.803Z,5.37
2019-03-27T06:45:38.371Z,4.76
2019-03-27T06:48:06.833Z,4.59
2019-03-27T06:50:35.326Z,5.12
2019-03-27T06:53:03.793Z,5.44
2019-03-27T06:55:32.289Z,5.28
2019-03-27T06:58:00.782Z,5.26
2019-03-27T07:00:37.446Z,4.83
2019-03-27T07:03:07.560Z,5.23
2019-03-27T07:05:36.089Z,5.40
2019-03-27T07:08:04.806Z,5.24
2019-03-27T07:10:33.269Z,5.50
2019-03-27T07:13:01.817Z,5.55
2019-03-27T07:15:30.289Z,5.35
2019-03-27T07:17:58.755Z,5.54
2019-03-27T07:20:27.258Z,5.45
2019-03-27T07:22:55.738Z,5.55
2019-03-27T07:25:25.602Z,5.80
2019-03-27T07:27:54.076Z,5.12
2019-03-27T07:30:22.714Z,4.89
2019-03-27T07:32:51.191Z,5.05
2019-03-27T07:35:19.714Z,5.53
2019-03-27T07:37:48.193Z,5.53
2019-03-27T07:40:16.831Z,5.71
2019-03-27T07:42:45.297Z,5.84
2019-03-27T07:45:14.135Z,6.04
2019-03-27T07:47:42.675Z,6.11
2019-03-27T07:50:11.565Z,6.15
2019-03-27T07:52:40.046Z,5.96
2019-03-27T07:55:18.855Z,5.58
2019-03-27T07:57:38.909Z,5.86
2019-03-27T08:00:13.645Z,6.41
2019-03-27T08:02:42.123Z,5.89
2019-03-27T08:05:10.933Z,6.46
2019-03-27T08:07:39.402Z,6.06
2019-03-27T08:10:08.328Z,6.26
2019-03-27T08:12:36.796Z,6.79
2019-03-27T08:15:07.145Z,7.20
2019-03-27T08:17:36.406Z,7.09
2019-03-27T08:20:07.364Z,6.09
2019-03-27T08:22:35.846Z,6.92
2019-03-27T08:25:06.646Z,6.83
2019-03-27T08:27:35.197Z,5.73
2019-03-27T08:30:05.306Z,5.99
2019-03-27T08:32:33.798Z,6.85
2019-03-27T08:35:02.277Z,7.61
2019-03-27T08:37:30.746Z,8.15
2019-03-27T08:39:59.210Z,7.84
2019-03-27T08:42:27.704Z,8.11
2019-03-27T08:44:56.177Z,8.29
2019-03-27T08:47:24.684Z,9.03
2019-03-27T08:49:53.171Z,8.88
2019-03-27T08:52:21.644Z,9.30
2019-03-27T08:54:50.115Z,9.37
2019-03-27T08:57:18.610Z,9.01
2019-03-27T08:59:47.081Z,9.31
2019-03-27T09:02:15.577Z,8.85
2019-03-27T09:04:44.048Z,9.21
2019-03-27T09:07:12.585Z,10.05
2019-03-27T09:09:41.066Z,10.01
2019-03-27T09:12:09.522Z,9.93
2019-03-27T09:14:38.021Z,9.96
2019-03-27T09:17:06.557Z,10.18
2019-03-27T09:19:36.372Z,10.04
2019-03-27T09:22:05.193Z,9.40
2019-03-27T09:24:33.742Z,10.01
2019-03-27T09:27:02.210Z,10.46
2019-03-27T09:29:30.716Z,10.29
2019-03-27T09:31:59.187Z,9.78
2019-03-27T09:34:27.733Z,9.50
2019-03-27T09:36:56.219Z,8.87
2019-03-27T09:39:24.685Z,8.99
2019-03-27T09:41:53.188Z,8.74
2019-03-27T09:44:21.679Z,9.25
2019-03-27T09:46:50.249Z,9.89
2019-03-27T09:49:18.722Z,10.97
2019-03-27T09:51:47.185Z,8.54
2019-03-27T09:54:15.676Z,9.11
2019-03-27T09:56:44.149Z,10.88
2019-03-27T09:59:12.616Z,10.97
2019-03-27T10:01:41.093Z,7.79
2019-03-27T10:04:09.555Z,7.66
2019-03-27T10:06:38.051Z,8.45
2019-03-27T10:09:07.753Z,7.47
2019-03-27T10:11:36.317Z,7.78
2019-03-27T10:14:05.053Z,7.88
2019-03-27T10:16:33.539Z,9.07
2019-03-27T10:19:01.995Z,8.32
2019-03-27T10:21:30.494Z,8.44
2019-03-27T10:23:58.955Z,9.56
2019-03-27T10:26:27.440Z,10.04
2019-03-27T10:28:55.900Z,9.84
2019-03-27T10:31:24.393Z,10.64
2019-03-27T10:33:52.962Z,10.10
2019-03-27T10:36:21.531Z,9.54
2019-03-27T10:38:49.996Z,9.93
2019-03-27T10:41:18.469Z,9.95
2019-03-27T10:43:46.961Z,9.75
2019-03-27T10:46:15.446Z,10.74
2019-03-27T10:48:52.635Z,10.50
2019-03-27T10:51:14.124Z,10.12
2019-03-27T10:53:42.791Z,9.76
2019-03-27T10:56:11.283Z,9.80
2019-03-27T10:58:39.752Z,10.41
2019-03-27T11:01:08.239Z,11.07
2019-03-27T11:03:36.722Z,10.91
2019-03-27T11:06:05.296Z,10.25
2019-03-27T11:08:33.757Z,9.75
2019-03-27T11:11:02.258Z,10.86
2019-03-27T11:13:30.743Z,10.86
2019-03-27T11:15:59.224Z,11.22
2019-03-27T11:18:27.829Z,11.62
2019-03-27T11:20:56.310Z,10.22
2019-03-27T11:23:24.770Z,9.15
2019-03-27T11:25:53.341Z,9.66
2019-03-27T11:28:21.801Z,9.57
2019-03-27T11:30:50.271Z,9.57
2019-03-27T11:33:18.775Z,9.69
2019-03-27T11:35:47.227Z,9.99
2019-03-27T11:38:15.894Z,10.55
2019-03-27T11:40:44.391Z,10.99
2019-03-27T11:43:12.871Z,11.76
2019-03-27T11:45:41.347Z,10.51
2019-03-27T11:48:09.916Z,10.87
2019-03-27T11:50:44.630Z,11.75
2019-03-27T11:53:08.659Z,11.96
2019-03-27T11:55:37.516Z,12.71
2019-03-27T11:58:06.070Z,12.41
2019-03-27T12:00:34.649Z,12.19
2019-03-27T12:03:03.233Z,12.11
2019-03-27T12:05:31.702Z,12.44
2019-03-27T12:08:00.188Z,12.47
2019-03-27T12:10:28.658Z,11.97
2019-03-27T12:12:57.257Z,12.76
2019-03-27T12:15:39.622Z,11.51
2019-03-27T12:18:08.831Z,12.12
2019-03-27T12:20:37.468Z,12.16
2019-03-27T12:23:05.958Z,12.73
2019-03-27T12:25:34.525Z,13.04
2019-03-27T12:28:03.063Z,13.24
2019-03-27T12:30:31.566Z,12.36
2019-03-27T12:33:00.048Z,12.79
2019-03-27T12:35:28.608Z,12.93
2019-03-27T12:37:57.157Z,12.68
2019-03-27T12:40:25.640Z,10.57
2019-03-27T12:42:54.115Z,10.90
2019-03-27T12:45:22.675Z,11.90
2019-03-27T12:47:51.158Z,11.92
2019-03-27T12:50:19.580Z,11.85
2019-03-27T12:52:48.149Z,12.02
2019-03-27T12:55:16.790Z,11.83
2019-03-27T12:57:45.292Z,11.48
2019-03-27T13:00:13.911Z,11.78
2019-03-27T13:02:42.382Z,11.84
2019-03-27T13:05:11.042Z,11.61
2019-03-27T13:07:49.450Z,11.66
2019-03-27T13:10:09.981Z,12.05
2019-03-27T13:12:38.444Z,12.69
2019-03-27T13:15:07.588Z,12.45
2019-03-27T13:17:36.063Z,12.44
2019-03-27T13:20:07.342Z,11.39
2019-03-27T13:22:38.264Z,10.89
2019-03-27T13:25:07.655Z,10.32
2019-03-27T13:27:36.162Z,10.47
2019-03-27T13:30:07.532Z,10.42
2019-03-27T13:32:36.097Z,11.14
2019-03-27T13:35:06.270Z,11.77
2019-03-27T13:37:34.760Z,11.96
2019-03-27T13:40:04.798Z,11.45
2019-03-27T13:42:33.272Z,11.66
2019-03-27T13:45:01.764Z,11.70
2019-03-27T13:47:30.220Z,11.58
2019-03-27T13:49:58.723Z,10.75
2019-03-27T13:52:27.361Z,11.41
2019-03-27T13:54:55.906Z,10.55
2019-03-27T13:57:24.386Z,10.23
2019-03-27T13:59:52.951Z,10.69
2019-03-27T14:02:21.414Z,11.09
2019-03-27T14:04:49.949Z,11.69
2019-03-27T14:07:18.422Z,11.44
2019-03-27T14:09:46.933Z,11.57
2019-03-27T14:12:15.435Z,11.61
2019-03-27T14:14:50.206Z,11.72
2019-03-27T14:17:14.126Z,11.83
2019-03-27T14:19:43.388Z,11.57
2019-03-27T14:22:11.856Z,11.05
2019-03-27T14:24:40.337Z,11.45
2019-03-27T14:27:08.816Z,9.51
2019-03-27T14:29:37.279Z,9.58
2019-03-27T14:32:05.846Z,10.65
2019-03-27T14:34:34.313Z,10.83
2019-03-27T14:37:03.895Z,10.90
2019-03-27T14:39:32.375Z,11.03
2019-03-27T14:42:00.859Z,10.81
2019-03-27T14:44:29.344Z,10.45
2019-03-27T14:46:57.855Z,9.73
2019-03-27T14:49:26.341Z,9.64
2019-03-27T14:52:07.423Z,10.00
2019-03-27T14:54:25.075Z,10.08
2019-03-27T14:56:53.547Z,10.35
2019-03-27T14:59:22.026Z,9.28
2019-03-27T15:01:50.492Z,9.21
2019-03-27T15:04:18.967Z,9.30
2019-03-27T15:06:47.473Z,9.62
2019-03-27T15:09:15.987Z,9.96
2019-03-27T15:11:44.520Z,9.72
2019-03-27T15:14:13.019Z,9.82
2019-03-27T15:16:41.488Z,9.42
2019-03-27T15:19:09.987Z,9.81
2019-03-27T15:21:38.485Z,9.84
2019-03-27T15:24:06.957Z,9.87
2019-03-27T15:26:35.458Z,9.70
2019-03-27T15:29:05.423Z,9.60
2019-03-27T15:31:33.907Z,10.07
2019-03-27T15:34:04.662Z,10.02
2019-03-27T15:36:33.160Z,10.05
2019-03-27T15:39:01.629Z,9.88
2019-03-27T15:41:30.109Z,10.41
2019-03-27T15:43:58.600Z,10.20
2019-03-27T15:46:27.210Z,10.20
2019-03-27T15:48:55.716Z,10.32
2019-03-27T15:51:25.475Z,9.86
2019-03-27T15:53:53.992Z,10.11
2019-03-27T15:56:25.552Z,10.40
2019-03-27T15:58:56.301Z,10.44
2019-03-27T16:01:25.756Z,9.99
2019-03-27T16:03:54.345Z,9.61
2019-03-27T16:06:22.897Z,9.51
2019-03-27T16:08:51.432Z,9.61
2019-03-27T16:11:19.928Z,9.85
2019-03-27T16:13:48.440Z,9.79
2019-03-27T16:16:16.982Z,10.23
2019-03-27T16:18:45.448Z,10.17
2019-03-27T16:21:13.937Z,10.01
2019-03-27T16:23:42.689Z,9.62
2019-03-27T16:26:11.191Z,10.01
2019-03-27T16:28:39.667Z,10.21
2019-03-27T16:31:08.497Z,10.13
2019-03-27T16:33:36.967Z,10.45
2019-03-27T16:36:05.704Z,10.22
2019-03-27T16:38:34.195Z,9.87
2019-03-27T16:41:02.667Z,9.76
2019-03-27T16:43:31.352Z,9.85
2019-03-27T16:45:59.836Z,9.74
2019-03-27T16:48:28.309Z,10.09
2019-03-27T16:50:56.821Z,10.15
2019-03-27T16:53:25.294Z,9.69
2019-03-27T16:55:53.960Z,9.96
2019-03-27T16:58:22.502Z,10.00
2019-03-27T17:00:50.975Z,9.80
2019-03-27T17:03:19.442Z,9.79
2019-03-27T17:05:53.769Z,9.54
2019-03-27T17:08:18.339Z,9.60
2019-03-27T17:10:46.808Z,9.66
2019-03-27T17:13:15.308Z,9.27
2019-03-27T17:15:45.380Z,9.66
2019-03-27T17:18:14.050Z,9.80
2019-03-27T17:20:42.526Z,9.63
2019-03-27T17:23:18.086Z,9.44
2019-03-27T17:25:41.426Z,9.46
2019-03-27T17:28:09.927Z,9.40
2019-03-27T17:30:38.402Z,9.36
2019-03-27T17:33:06.885Z,9.24
2019-03-27T17:35:35.465Z,9.27
2019-03-27T17:38:04.005Z,9.16
2019-03-27T17:40:32.563Z,9.17
2019-03-27T17:43:01.041Z,9.13
2019-03-27T17:45:29.548Z,9.12
2019-03-27T17:47:58.045Z,9.00
2019-03-27T17:50:26.556Z,8.97
2019-03-27T17:52:55.033Z,8.93
2019-03-27T17:55:23.712Z,8.90
2019-03-27T17:57:52.190Z,8.84
2019-03-27T18:00:25.389Z,8.79
2019-03-27T18:02:53.875Z,8.72
2019-03-27T18:05:23.268Z,8.52
2019-03-27T18:07:51.777Z,8.52
2019-03-27T18:10:20.250Z,8.43
2019-03-27T18:12:48.727Z,8.31
2019-03-27T18:15:17.244Z,8.32
2019-03-27T18:17:45.719Z,8.22
2019-03-27T18:20:14.292Z,8.12
2019-03-27T18:22:42.801Z,7.93
2019-03-27T18:25:11.351Z,7.48
2019-03-27T18:27:39.840Z,7.56
2019-03-27T18:30:08.885Z,7.74
2019-03-27T18:32:38.393Z,7.90
2019-03-27T18:35:08.049Z,7.97
2019-03-27T18:37:36.599Z,8.01
2019-03-27T18:40:07.270Z,8.02
2019-03-27T18:42:36.006Z,8.02
2019-03-27T18:45:07.378Z,7.91
2019-03-27T18:47:36.044Z,7.86
2019-03-27T18:50:07.407Z,7.72
2019-03-27T18:52:35.893Z,7.75
2019-03-27T18:55:06.924Z,7.66
2019-03-27T18:57:35.475Z,7.36
2019-03-27T19:00:06.925Z,7.40
2019-03-27T19:02:35.436Z,7.13
2019-03-27T19:05:05.698Z,7.13
2019-03-27T19:07:34.189Z,7.24
2019-03-27T19:10:02.790Z,7.22
2019-03-27T19:12:31.296Z,7.23
2019-03-27T19:14:59.768Z,7.42
2019-03-27T19:17:28.334Z,7.17
2019-03-27T19:19:56.804Z,7.66
2019-03-27T19:22:25.313Z,7.63
2019-03-27T19:24:53.824Z,7.72
2019-03-27T19:27:24.372Z,7.72
2019-03-27T19:29:52.877Z,7.95
2019-03-27T19:32:21.539Z,7.88
2019-03-27T19:34:51.215Z,8.15
2019-03-27T19:37:19.797Z,8.22
2019-03-27T19:39:48.303Z,8.20
2019-03-27T19:42:16.803Z,8.38
2019-03-27T19:44:45.275Z,8.61
2019-03-27T19:47:13.777Z,8.62
2019-03-27T19:49:42.376Z,8.48
2019-03-27T19:52:10.865Z,8.59
2019-03-27T19:54:39.372Z,8.76
2019-03-27T19:57:07.848Z,8.80
2019-03-27T19:59:36.356Z,8.70
2019-03-27T20:02:06.369Z,8.88
2019-03-27T20:04:34.857Z,8.72
2019-03-27T20:07:03.338Z,8.63
2019-03-27T20:09:32.032Z,8.49
2019-03-27T20:12:00.508Z,8.57
2019-03-27T20:14:28.989Z,8.48
2019-03-27T20:16:57.473Z,8.47
2019-03-27T20:19:26.056Z,8.44
2019-03-27T20:21:54.607Z,8.31
2019-03-27T20:24:23.099Z,8.42
2019-03-27T20:26:51.611Z,8.47
2019-03-27T20:29:20.083Z,8.58
2019-03-27T20:31:48.570Z,8.52
2019-03-27T20:34:17.082Z,8.71
2019-03-27T20:36:45.554Z,8.79
2019-03-27T20:39:14.039Z,8.85
2019-03-27T20:41:43.507Z,8.81
2019-03-27T20:44:12.052Z,8.71
2019-03-27T20:46:40.556Z,8.62
2019-03-27T20:49:09.037Z,8.67
2019-03-27T20:51:37.552Z,8.61
2019-03-27T20:54:06.028Z,8.59
2019-03-27T20:56:34.542Z,8.76
2019-03-27T20:59:03.363Z,8.73
2019-03-27T21:01:32.626Z,8.68
2019-03-27T21:04:01.256Z,8.85
2019-03-27T21:06:29.764Z,8.84
2019-03-27T21:08:58.238Z,8.88
2019-03-27T21:11:26.741Z,8.91
2019-03-27T21:13:55.208Z,9.07
2019-03-27T21:16:23.692Z,9.11
2019-03-27T21:18:52.322Z,8.99
2019-03-27T21:21:20.826Z,9.05
2019-03-27T21:23:49.298Z,8.96
2019-03-27T21:26:17.777Z,8.90
2019-03-27T21:28:46.288Z,8.55
2019-03-27T21:31:14.854Z,8.76
2019-03-27T21:33:43.342Z,8.87
2019-03-27T21:36:11.893Z,8.87
2019-03-27T21:38:40.399Z,8.87
2019-03-27T21:41:08.901Z,8.95
2019-03-27T21:43:37.367Z,8.94
2019-03-27T21:46:05.859Z,8.88
2019-03-27T21:48:34.377Z,8.99
2019-03-27T21:51:02.870Z,8.92
2019-03-27T21:53:31.342Z,9.16
2019-03-27T21:55:59.851Z,9.26
2019-03-27T21:58:28.354Z,9.36
2019-03-27T22:00:56.852Z,9.27
2019-03-27T22:03:25.338Z,9.14
2019-03-27T22:05:53.845Z,9.22
2019-03-27T22:08:22.320Z,9.14
2019-03-27T22:10:50.824Z,9.08
2019-03-27T22:13:19.339Z,9.08
2019-03-27T22:15:47.806Z,9.28
2019-03-27T22:18:16.278Z,9.29
2019-03-27T22:20:44.847Z,9.20
2019-03-27T22:23:13.300Z,9.15
2019-03-27T22:25:41.803Z,9.11
2019-03-27T22:28:10.284Z,8.97
2019-03-27T22:30:38.807Z,9.09
2019-03-27T22:33:07.408Z,9.07
2019-03-27T22:35:35.871Z,9.12
2019-03-27T22:38:04.447Z,8.98
2019-03-27T22:40:32.937Z,8.91
2019-03-27T22:43:01.430Z,8.91
2019-03-27T22:45:29.914Z,9.03
2019-03-27T22:47:58.380Z,8.94
2019-03-27T22:50:27.216Z,8.98
2019-03-27T22:52:55.709Z,8.95
2019-03-27T22:55:24.176Z,8.81
2019-03-27T22:57:52.655Z,8.62
2019-03-27T23:00:23.323Z,8.46
2019-03-27T23:02:51.802Z,8.41
2019-03-27T23:05:20.352Z,8.53
2019-03-27T23:07:48.933Z,8.58
2019-03-27T23:10:17.418Z,8.56
2019-03-27T23:12:45.894Z,8.57
2019-03-27T23:15:14.607Z,8.45
2019-03-27T23:17:43.090Z,8.46
2019-03-27T23:20:11.936Z,8.53
2019-03-27T23:22:40.475Z,8.70
2019-03-27T23:25:09.510Z,8.47
2019-03-27T23:27:37.974Z,8.50
2019-03-27T23:30:10.577Z,8.43
2019-03-27T23:32:39.115Z,8.51
2019-03-27T23:35:08.882Z,8.19
2019-03-27T23:37:37.404Z,8.10
2019-03-27T23:40:07.850Z,8.15
2019-03-27T23:42:36.587Z,8.19
2019-03-27T23:45:07.236Z,8.09
2019-03-27T23:47:35.704Z,7.99
2019-03-27T23:50:05.828Z,8.07
2019-03-27T23:52:34.320Z,7.94
2019-03-27T23:55:02.788Z,7.84
2019-03-27T23:57:31.288Z,7.78
2019-03-27T23:59:59.754Z,7.76
